Flight Track Log - Related Links

Times and Time Zones

All times are in EDT time to prevent confusion due to time zone crossing. See the LOF3416 flight status page for this flight to view local times or setup timezone preferences in your user account.

Time Position Orientation Groundspeed Altitude Reporting Facility
EDT Latitude Longitude Course Direction KTS MPH feet Rate Location/Type
Sat 07:13:38 PM 43.0953 -77.7003 281° West 152 175 1,400  Level Cleveland Center
Sat 07:14:15 PM 43.0772 -77.7239 224° Southwest 173 199 2,700 1,868 Climbing Cleveland Center
Sat 07:15:24 PM 43.0814 -77.8089 274° West 197 227 4,700 1,860 Climbing Cleveland Center
Sat 07:16:24 PM 43.1003 -77.9047 285° West 220 253 6,700 2,200 Climbing Cleveland Center
Sat 07:17:00 PM 43.1654 -78.1869 278° West  Level FlightAware Approximate
Sat 07:17:24 PM 43.1192 -78.0006 285° West 251 289 9,100  Level Cleveland Center
Sat 07:18:00 PM 43.1834 -78.3164 281° West  Level FlightAware Approximate
Sat 07:18:24 PM 43.1381 -78.1050 284° West 273 314 10,700  Level Cleveland Center
Sat 07:19:24 PM 43.1572 -78.2239 283° West 299 344 11,900 1,300 Climbing Cleveland Center
Sat 07:20:24 PM 43.1764 -78.3456 282° West 316 364 13,300 1,350 Climbing Cleveland Center
Sat 07:21:24 PM 43.1975 -78.4700 283° West 335 386 14,600 1,550 Climbing Cleveland Center
Sat 07:22:24 PM 43.2206 -78.5947 284° West 335 386 16,400 1,650 Climbing Cleveland Center
Sat 07:23:24 PM 43.2453 -78.7108 286° West 329 379 17,900 1,050 Climbing Cleveland Center
Sat 07:24:24 PM 43.2681 -78.8356 284° West 335 386 18,500 766 Climbing Cleveland Center
Sat 07:24:58 PM 43.2667 -78.8833 268° West 340 391 19,100 1,021 Climbing Toronto Center
Sat 07:25:58 PM 43.3000 -79.0167 289° West 350 403 20,100 950 Climbing Toronto Center
Sat 07:26:58 PM 43.3000 -79.1500 270° West 360 414 21,000 950 Climbing Toronto Center
Sat 07:27:58 PM 43.2833 -79.2833 260° West 360 414 22,000 1,150 Climbing Toronto Center
Sat 07:28:58 PM 43.2667 -79.4333 261° West 360 414 23,300 1,250 Climbing Toronto Center
Sat 07:29:58 PM 43.2333 -79.5667 251° West 350 403 24,500 1,100 Climbing Toronto Center
Sat 07:30:58 PM 43.2333 -79.6833 270° West 350 403 25,500 1,050 Climbing Toronto Center
Sat 07:31:58 PM 43.2167 -79.8167 260° West 350 403 26,600 1,150 Climbing Toronto Center
Sat 07:32:58 PM 43.1833 -79.9500 251° West 350 403 27,800 1,100 Climbing Toronto Center
Sat 07:33:58 PM 43.1667 -80.0667 259° West 350 403 28,800 1,000 Climbing Toronto Center
Sat 07:34:58 PM 43.1500 -80.2000 260° West 360 414 29,800 600 Climbing Toronto Center
Sat 07:35:58 PM 43.1333 -80.3667 262° West 370 426 30,000 100 Climbing Toronto Center
Sat 07:36:58 PM 43.1167 -80.5000 260° West 390 449 30,000  Level Toronto Center
Sat 07:37:58 PM 43.1000 -80.6667 262° West 410 472 30,000  Level Toronto Center
Sat 07:38:58 PM 43.0667 -80.8167 253° West 420 483 30,000  Level Toronto Center
Sat 07:39:58 PM 43.0500 -80.9500 260° West 420 483 30,000  Level Toronto Center
Sat 07:40:58 PM 43.0167 -81.1333 256° West 430 495 30,000  Level Toronto Center
Sat 07:41:58 PM 43.0167 -81.3000 270° West 430 495 30,000  Level Toronto Center
Sat 07:42:58 PM 43.0167 -81.4500 270° West 430 495 30,000  Level Toronto Center
Sat 07:43:58 PM 43.0167 -81.6167 270° West 440 506 30,000  Level Toronto Center
Sat 07:44:58 PM 43.0167 -81.8000 270° West 440 506 30,000  Level Toronto Center
Sat 07:45:58 PM 43.0000 -81.9667 262° West 440 506 30,000  Level Toronto Center
Sat 07:46:58 PM 43.0000 -82.1333 270° West 440 506 30,000  Level Toronto Center
Sat 07:47:58 PM 43.0000 -82.3000 270° West 440 506 30,000  Level Toronto Center
Sat 07:48:58 PM 43.0000 -82.4667 270° West 440 506 30,000  Level Toronto Center
Sat 07:49:58 PM 43.0000 -82.6167 270° West 440 506 30,000  Level Toronto Center
Sat 07:50:58 PM 42.9833 -82.8000 263° West 440 506 30,000  Level Toronto Center
Sat 07:51:58 PM 42.9833 -82.9667 270° West 440 506 30,000  Level Toronto Center
Sat 07:52:58 PM 42.9667 -83.1167 261° West 440 506 30,000 -300 Level Toronto Center
Sat 07:53:58 PM 42.9500 -83.3000 263° West 440 506 29,400 -850 Descending Toronto Center
Sat 07:54:58 PM 42.9500 -83.4667 270° West 450 518 28,300 -700 Descending Toronto Center
Sat 07:55:58 PM 42.9333 -83.6333 262° West 460 529 28,000 -150 Descending Toronto Center
Sat 07:56:58 PM 42.9167 -83.8000 262° West 450 518 28,000  Level Toronto Center
Sat 07:57:58 PM 42.9167 -83.9833 270° West 450 518 28,000  Level Toronto Center
Sat 07:58:58 PM 42.9000 -84.1333 261° West 450 518 28,000  Level Toronto Center
Sat 07:59:58 PM 42.8833 -84.3167 263° West 450 518 28,000  Level Toronto Center
Sat 08:00:58 PM 42.8833 -84.4833 270° West 450 518 28,000  Level Toronto Center
Sat 08:01:58 PM 42.8500 -84.6667 256° West 450 518 28,000  Level Toronto Center
Sat 08:02:58 PM 42.8500 -84.8167 270° West 450 518 28,000  Level Toronto Center
Sat 08:03:58 PM 42.8167 -85.0000 256° West 450 518 28,000  Level Toronto Center
Sat 08:05:19 PM 42.8192 -85.1994 271° West 446 513 28,000 -294 Level Chicago Center
Sat 08:06:21 PM 42.8011 -85.3697 262° West 453 521 27,300 -968 Descending Chicago Center
Sat 08:07:23 PM 42.7792 -85.5417 260° West 460 529 26,000 -1,306 Descending Chicago Center
Sat 08:08:25 PM 42.7475 -85.7114 256° West 460 529 24,600 -1,463 Descending Chicago Center
Sat 08:09:26 PM 42.7164 -85.8856 256° West 468 539 23,000 -1,805 Descending Chicago Center
Sat 08:10:28 PM 42.6797 -86.0850 256° West 452 520 20,900 -1,452 Descending Chicago Center
Sat 08:11:30 PM 42.6508 -86.2464 256° West 439 505 20,000 -1,210 Descending Chicago Center
Sat 08:12:32 PM 42.6194 -86.4069 255° West 439 505 18,400 -1,887 Descending Chicago Center
Sat 08:13:34 PM 42.5906 -86.5578 255° West 418 481 16,100 -2,226 Descending Chicago Center
Sat 08:14:36 PM 42.5636 -86.7086 256° West 412 474 13,800 -2,098 Descending Chicago Center
Sat 08:15:37 PM 42.5286 -86.8475 251° West 396 456 11,800 -1,659 Descending Chicago Center
Sat 08:16:39 PM 42.4911 -86.9825 249° West 386 444 10,400 -871 Descending Chicago Center
Sat 08:17:41 PM 42.4458 -87.1422 249° West 375 432 10,000 -194 Descending Chicago Center
Sat 08:18:43 PM 42.4117 -87.2706 250° West 372 428 10,000  Level Chicago Center
Sat 08:19:45 PM 42.3769 -87.3986 250° West 369 425 10,000  Level Chicago Center
Sat 08:20:46 PM 42.3392 -87.5286 249° West 372 428 10,000 -49 Level Chicago Center
Sat 08:21:48 PM 42.2647 -87.6139 220° Southwest 354 407 9,900 -290 Descending Chicago Center
Sat 08:22:50 PM 42.1931 -87.6914 219° Southwest 270 311 9,400 -726 Descending Chicago Center
Sat 08:23:52 PM 42.1636 -87.7544 238° Southwest 227 261 8,400 -1,016 Descending Chicago Center
Sat 08:24:54 PM 42.1631 -87.8297 269° West 205 236 7,300 -780 Descending Chicago Center
Sat 08:25:55 PM 42.1672 -87.9061 274° West 206 237 6,800 -927 Descending Chicago Center
Sat 08:26:57 PM 42.1875 -87.9769 291° West 203 234 5,400 -1,161 Descending Chicago Center
Sat 08:27:59 PM 42.2056 -88.0453 290° West 199 229 4,400 -677 Descending Chicago Center
Sat 08:29:01 PM 42.1903 -88.1167 254° West 193 222 4,000 -293 Descending Chicago Center
Sat 08:30:02 PM 42.1428 -88.1072 172° South 180 207 3,800 -439 Descending Chicago Center
Sat 08:31:04 PM 42.1075 -88.0669 140° Southeast 169 194 3,100 -581 Descending Chicago Center
Sat 08:32:06 PM 42.0733 -88.0297 141° Southeast 163 188 2,600 -439 Descending Chicago Center
Sat 08:33:07 PM 42.0433 -87.9939 138° Southeast 155 178 2,200 -393 Descending Chicago Center

Login

Don't have an account? Register now (free) for customized features, flight alerts, and more!